Time;durP1;ratioP1;P1;durP2;ratioP2;P2;SDS_P1;SDS_P2;PMS_P1;PMS_P2;Temp;Humidity;BMP_temperature;BMP_pressure;BME280_temperature;BME280_humidity;BME280_pressure;Samples;Min_cycle;Max_cycle;Signal;HPM_P1;HPM_P2
2021/05/27 00:00:25;;;;;;;12.18;4.90;;;;;;;11.58;74.71;101312.94;5093547;28;20101;-50
2021/05/27 00:02:53;;;;;;;14.25;5.68;;;;;;;11.55;75.56;101310.72;5093313;28;20094;-50
2021/05/27 00:05:21;;;;;;;15.23;4.95;;;;;;;11.52;75.61;101315.63;5092934;28;20086;-51
2021/05/27 00:07:49;;;;;;;15.27;4.93;;;;;;;11.47;75.39;101307.41;5093478;28;20055;-52
2021/05/27 00:10:27;;;;;;;14.63;4.75;;;;;;;11.46;75.91;101313.94;5093049;28;20113;-50
2021/05/27 00:12:56;;;;;;;15.48;5.05;;;;;;;11.44;75.85;101318.81;5093179;28;20032;-50
2021/05/27 00:15:25;;;;;;;14.73;5.40;;;;;;;11.41;76.17;101313.06;5091950;28;20043;-51
2021/05/27 00:17:53;;;;;;;10.30;4.80;;;;;;;11.40;76.59;101311.41;5093427;28;20039;-49
2021/05/27 00:20:22;;;;;;;17.17;5.80;;;;;;;11.40;76.17;101316.88;5092723;28;20105;-50
2021/05/27 00:22:49;;;;;;;14.77;5.85;;;;;;;11.41;75.82;101322.06;5093407;28;20494;-51
2021/05/27 00:25:18;;;;;;;14.93;6.93;;;;;;;11.41;75.85;101324.81;5074974;28;20114;-52
2021/05/27 00:27:46;;;;;;;19.48;9.15;;;;;;;11.38;75.25;101319.06;5072871;28;20437;-52
2021/05/27 00:30:15;;;;;;;22.92;10.88;;;;;;;11.33;74.93;101317.13;5085593;28;20113;-50
2021/05/27 00:32:43;;;;;;;22.77;11.27;;;;;;;11.32;74.84;101318.19;5086668;28;20044;-51
2021/05/27 00:35:11;;;;;;;24.20;10.55;;;;;;;11.31;75.64;101319.28;5083652;28;20067;-55
2021/05/27 00:37:39;;;;;;;20.33;10.80;;;;;;;11.29;74.69;101325.00;5092820;28;20490;-51
2021/05/27 00:40:10;;;;;;;23.52;11.27;;;;;;;11.30;74.92;101331.25;5092531;28;20048;-50
2021/05/27 00:42:38;;;;;;;22.27;11.85;;;;;;;11.31;74.87;101327.47;5092707;28;20052;-49
2021/05/27 00:45:09;;;;;;;24.38;12.20;;;;;;;11.30;74.72;101328.53;5092877;28;20036;-50
2021/05/27 00:47:38;;;;;;;26.52;12.75;;;;;;;11.30;74.63;101334.84;5090899;28;20080;-49
2021/05/27 00:50:09;;;;;;;23.15;13.13;;;;;;;11.26;74.73;101341.06;5092884;28;20044;-51
2021/05/27 00:52:38;;;;;;;24.75;10.82;;;;;;;11.20;74.16;101333.91;5092978;28;20051;-51
2021/05/27 00:55:07;;;;;;;22.88;11.95;;;;;;;11.20;74.24;101336.63;5093169;28;20101;-53
2021/05/27 00:57:37;;;;;;;22.48;11.30;;;;;;;11.19;74.12;101335.00;5092653;28;20032;-50
2021/05/27 01:00:18;;;;;;;24.20;12.15;;;;;;;11.19;73.60;101337.72;5091025;28;20055;-52
2021/05/27 01:02:45;;;;;;;19.98;10.23;;;;;;;11.16;73.80;101330.88;5090493;28;20036;-53
2021/05/27 01:05:15;;;;;;;27.13;12.07;;;;;;;11.14;73.54;101333.06;5078222;28;20048;-49
2021/05/27 01:07:44;;;;;;;21.08;10.23;;;;;;;11.16;73.43;101332.78;5072463;28;20036;-52
2021/05/27 01:10:14;;;;;;;20.25;10.63;;;;;;;11.18;73.64;101341.53;5079778;28;20048;-51
2021/05/27 01:12:42;;;;;;;20.55;10.40;;;;;;;11.19;73.33;101337.72;5091792;28;20036;-57
2021/05/27 01:18:09;;;;;;;20.30;10.18;;;;;;;11.24;73.39;101343.22;5070359;28;20068;-54
2021/05/27 01:20:41;;;;;;;21.42;10.75;;;;;;;11.28;73.55;101349.78;5070829;28;20098;-54
2021/05/27 01:23:09;;;;;;;19.88;9.65;;;;;;;11.25;73.19;101347.59;5071860;28;20032;-54
2021/05/27 01:25:43;;;;;;;20.35;8.60;;;;;;;11.24;73.91;101351.41;5071041;28;20068;-52
2021/05/27 01:28:11;;;;;;;17.25;8.70;;;;;;;11.21;73.84;101351.94;5070524;28;20044;-50
2021/05/27 01:30:40;;;;;;;18.52;8.80;;;;;;;11.21;73.64;101351.94;5070677;28;20053;-53
2021/05/27 01:33:19;;;;;;;19.35;8.65;;;;;;;11.20;74.09;101355.72;5070127;28;20071;-52
2021/05/27 01:35:47;;;;;;;20.67;8.80;;;;;;;11.21;73.41;101357.38;5070786;28;20049;-55
2021/05/27 01:38:25;;;;;;;22.88;9.32;;;;;;;11.18;73.69;101360.63;5070486;28;20040;-51
2021/05/27 01:40:54;;;;;;;24.25;11.60;;;;;;;11.12;72.87;101353.47;5070251;28;20090;-56
2021/05/27 01:43:23;;;;;;;20.63;9.65;;;;;;;11.11;73.78;101368.19;5071884;28;20380;-51
2021/05/27 01:45:54;;;;;;;22.52;10.30;;;;;;;11.12;73.68;101370.66;5056171;28;20044;-54
2021/05/27 01:48:23;;;;;;;22.88;10.27;;;;;;;11.07;72.88;101373.34;5070476;28;20465;-55
2021/05/27 01:50:51;;;;;;;21.90;9.65;;;;;;;11.02;72.68;101382.28;5071682;28;20499;-52
2021/05/27 01:53:23;;;;;;;17.65;8.00;;;;;;;10.99;72.46;101374.63;5071952;28;20048;-51
2021/05/27 01:55:51;;;;;;;23.25;7.88;;;;;;;10.95;72.54;101370.78;5070530;28;20498;-50
2021/05/27 01:58:22;;;;;;;19.15;7.40;;;;;;;10.93;72.04;101366.66;5070395;28;20407;-53
2021/05/27 02:00:49;;;;;;;20.52;7.35;;;;;;;10.92;71.80;101376.75;5069735;28;20048;-49
2021/05/27 02:03:23;;;;;;;15.73;6.50;;;;;;;10.93;70.92;101377.56;5070695;28;20048;-49
2021/05/27 02:06:01;;;;;;;18.98;6.53;;;;;;;10.89;70.61;101374.50;5070443;28;20068;-52
2021/05/27 02:08:29;;;;;;;16.77;6.50;;;;;;;10.87;70.64;101377.50;5071626;28;20040;-52
2021/05/27 02:11:00;;;;;;;19.17;6.22;;;;;;;10.84;70.86;101380.72;5071175;28;20094;-53
2021/05/27 02:13:35;;;;;;;16.30;6.32;;;;;;;10.85;70.45;101381.56;5072767;28;20410;-52
2021/05/27 02:16:05;;;;;;;14.55;5.43;;;;;;;10.83;69.69;101383.72;5073653;28;20036;-51
2021/05/27 02:18:33;;;;;;;17.40;6.13;;;;;;;10.81;70.17;101386.69;5075020;28;20126;-51
2021/05/27 02:21:01;;;;;;;21.17;6.07;;;;;;;10.77;70.19;101382.00;5075167;28;20048;-50
2021/05/27 02:23:29;;;;;;;19.75;5.97;;;;;;;10.76;69.97;101381.19;5073816;28;20089;-54
2021/05/27 02:26:08;;;;;;;16.10;5.65;;;;;;;10.78;70.05;101387.22;5074601;28;20051;-54
2021/05/27 02:28:54;;;;;;;18.55;5.65;;;;;;;10.77;70.31;101385.56;5073786;28;20052;-50
2021/05/27 02:31:24;;;;;;;18.52;6.05;;;;;;;10.74;69.97;101393.44;5074608;28;20098;-50
2021/05/27 02:33:53;;;;;;;19.80;6.20;;;;;;;10.70;70.80;101400.47;5073541;28;20122;-52
2021/05/27 02:36:28;;;;;;;16.23;5.13;;;;;;;10.68;70.46;101402.63;5074675;28;20071;-50
2021/05/27 02:38:57;;;;;;;22.88;6.25;;;;;;;10.69;70.74;101398.81;5074728;28;20056;-52
2021/05/27 02:41:31;;;;;;;16.88;5.35;;;;;;;10.69;70.58;101396.09;5073156;28;20521;-53
2021/05/27 02:44:02;;;;;;;15.55;5.18;;;;;;;10.69;71.06;101405.09;5073113;28;20040;-49
2021/05/27 02:46:32;;;;;;;17.90;5.75;;;;;;;10.69;70.94;101412.44;5073332;28;20055;-52
2021/05/27 02:49:00;;;;;;;18.42;5.72;;;;;;;10.64;71.05;101397.69;5074550;28;20040;-52
2021/05/27 02:51:29;;;;;;;15.80;6.00;;;;;;;10.60;71.32;101406.63;5073099;28;20071;-52
2021/05/27 02:53:59;;;;;;;14.82;5.20;;;;;;;10.59;71.06;101411.25;5074324;28;20032;-53
2021/05/27 02:56:27;;;;;;;19.67;6.50;;;;;;;10.61;71.21;101414.53;5073190;28;20083;-49
2021/05/27 02:58:57;;;;;;;23.98;6.57;;;;;;;10.61;71.40;101411.81;5072919;28;20045;-52
2021/05/27 03:01:25;;;;;;;13.35;5.72;;;;;;;10.63;71.22;101406.94;5073335;28;20052;-51
2021/05/27 03:03:55;;;;;;;18.15;5.28;;;;;;;10.66;71.04;101411.88;5073982;28;20036;-52
2021/05/27 03:06:22;;;;;;;19.58;5.82;;;;;;;10.68;71.18;101410.78;5074476;28;20037;-53
2021/05/27 03:08:53;;;;;;;20.25;6.15;;;;;;;10.66;71.37;101406.44;5072985;28;20503;-51
2021/05/27 03:11:21;;;;;;;16.35;5.68;;;;;;;10.62;71.48;101405.28;5074172;28;20062;-52
2021/05/27 03:14:00;;;;;;;17.60;6.13;;;;;;;10.64;71.41;101408.56;5072555;28;20079;-51
2021/05/27 03:16:41;;;;;;;15.88;5.28;;;;;;;10.64;71.75;101413.22;5074206;28;20040;-52
2021/05/27 03:19:09;;;;;;;18.70;6.22;;;;;;;10.66;72.01;101419.25;5073082;28;20048;-50
2021/05/27 03:21:38;;;;;;;19.77;6.60;;;;;;;10.63;71.94;101426.03;5072770;28;20043;-52
2021/05/27 03:24:07;;;;;;;20.20;5.78;;;;;;;10.61;72.11;101414.53;5073561;28;20491;-51
2021/05/27 03:26:37;;;;;;;17.27;5.78;;;;;;;10.62;72.29;101413.47;5073541;28;20041;-51
2021/05/27 03:29:06;;;;;;;14.90;5.65;;;;;;;10.64;72.11;101419.47;5072836;28;20499;-53
2021/05/27 03:31:33;;;;;;;16.05;5.47;;;;;;;10.64;72.21;101418.66;5072713;28;20052;-54
2021/05/27 03:34:05;;;;;;;18.63;5.75;;;;;;;10.63;71.98;101422.44;5072925;28;20048;-52
2021/05/27 03:36:33;;;;;;;18.15;6.10;;;;;;;10.59;71.90;101421.34;5073732;28;20055;-52
2021/05/27 03:39:00;;;;;;;17.98;5.70;;;;;;;10.58;72.62;101425.97;5073707;28;20032;-53
2021/05/27 03:41:28;;;;;;;18.88;6.40;;;;;;;10.57;72.61;101429.75;5072997;28;20047;-53
2021/05/27 03:44:00;;;;;;;17.30;5.93;;;;;;;10.52;72.80;101420.69;5072258;28;20044;-51
2021/05/27 03:46:28;;;;;;;16.38;5.82;;;;;;;10.50;73.02;101426.38;5072283;28;20056;-49
2021/05/27 03:48:56;;;;;;;15.45;5.20;;;;;;;10.51;73.10;101424.47;5073610;28;20041;-52
2021/05/27 03:51:24;;;;;;;17.63;5.97;;;;;;;10.52;73.03;101421.50;5073520;28;20048;-50
2021/05/27 03:53:52;;;;;;;17.70;6.75;;;;;;;10.53;73.48;101431.31;5072017;28;20055;-52
2021/05/27 03:56:21;;;;;;;16.30;5.53;;;;;;;10.52;73.87;101429.69;5071485;28;20072;-53
2021/05/27 04:01:50;;;;;;;14.32;5.10;;;;;;;10.48;74.22;101431.25;5071892;28;20048;-51
2021/05/27 04:07:15;;;;;;;;;;;;;;;10.47;74.04;101443.25;5069592;28;20048;-51
2021/05/27 04:09:43;;;;;;;15.30;5.88;;;;;;;10.49;74.47;101438.38;5072849;28;20297;-51
2021/05/27 04:17:43;;;;;;;;;;;;;;;10.54;74.49;101435.72;5073078;28;20459;-51
2021/05/27 04:20:12;;;;;;;16.70;6.22;;;;;;;10.49;74.36;101441.09;5072728;28;20272;-51
2021/05/27 04:22:44;;;;;;;19.42;6.68;;;;;;;10.46;75.29;101438.84;5072631;28;20049;-50
2021/05/27 04:25:13;;;;;;;22.40;7.68;;;;;;;10.47;75.10;101435.06;5072506;28;20048;-52
2021/05/27 04:27:41;;;;;;;15.70;6.47;;;;;;;10.46;75.62;101438.84;5072530;28;20472;-53
2021/05/27 04:30:13;;;;;;;16.98;6.72;;;;;;;10.46;75.37;101438.84;5072667;28;20045;-52
2021/05/27 04:35:43;;;;;;;19.13;6.45;;;;;;;10.41;75.52;101446.97;5052854;28;20091;-50
2021/05/27 04:38:12;;;;;;;16.05;5.95;;;;;;;10.37;75.63;101445.84;5070024;28;20076;-54
2021/05/27 04:40:45;;;;;;;20.60;6.03;;;;;;;10.37;75.79;101441.22;5069706;28;20040;-52
2021/05/27 04:43:15;;;;;;;18.15;6.57;;;;;;;10.40;75.92;101445.31;5069950;28;20542;-49
2021/05/27 04:45:42;;;;;;;15.20;6.13;;;;;;;10.39;75.49;101444.50;5070146;28;20079;-52
2021/05/27 04:48:12;;;;;;;16.55;5.80;;;;;;;10.40;76.00;101456.22;5070286;28;20046;-53
2021/05/27 04:50:40;;;;;;;18.63;5.88;;;;;;;10.41;76.34;101445.09;5070238;28;20032;-53
2021/05/27 04:53:09;;;;;;;22.10;6.30;;;;;;;10.44;75.90;101449.22;5069961;28;20054;-52
2021/05/27 04:55:36;;;;;;;21.13;6.43;;;;;;;10.44;75.91;101441.84;5069535;28;20040;-49
2021/05/27 04:58:05;;;;;;;19.95;7.40;;;;;;;10.40;76.08;101450.78;5069507;28;20052;-51
2021/05/27 05:00:33;;;;;;;18.73;6.50;;;;;;;10.39;76.26;101452.69;5069616;28;20040;-53
2021/05/27 05:03:01;;;;;;;20.45;7.35;;;;;;;10.38;76.48;101452.91;5069923;28;20515;-51
2021/05/27 05:05:31;;;;;;;17.73;7.32;;;;;;;10.40;76.54;101456.22;5069595;28;20056;-49
2021/05/27 05:07:59;;;;;;;19.40;6.78;;;;;;;10.43;76.59;101461.16;5069745;28;20037;-47
2021/05/27 05:10:28;;;;;;;20.92;8.27;;;;;;;10.43;76.56;101466.59;5069109;28;20098;-47
2021/05/27 05:12:56;;;;;;;17.40;7.18;;;;;;;10.47;76.50;101467.75;5070994;28;20064;-49
2021/05/27 05:15:25;;;;;;;15.82;7.35;;;;;;;10.52;76.54;101467.00;5072000;28;20086;-50
2021/05/27 05:17:52;;;;;;;16.33;7.50;;;;;;;10.52;76.42;101465.09;5072019;28;20052;-54
2021/05/27 05:20:22;;;;;;;21.95;8.57;;;;;;;10.49;76.34;101467.53;5071985;28;20044;-53
2021/05/27 05:22:49;;;;;;;14.10;6.85;;;;;;;10.51;76.79;101463.47;5071405;28;20094;-52
2021/05/27 05:25:18;;;;;;;19.60;8.40;;;;;;;10.52;76.53;101467.00;5071860;28;20037;-54
2021/05/27 05:27:46;;;;;;;18.98;7.55;;;;;;;10.50;76.26;101466.44;5071709;28;20502;-50
2021/05/27 05:30:14;;;;;;;16.13;6.72;;;;;;;10.50;76.57;101464.53;5071982;28;20075;-52
2021/05/27 05:32:42;;;;;;;19.73;8.00;;;;;;;10.52;76.40;101469.75;5071866;28;20094;-52
2021/05/27 05:35:11;;;;;;;17.98;7.00;;;;;;;10.46;76.73;101471.53;5071415;28;20064;-51
2021/05/27 05:37:39;;;;;;;15.82;7.00;;;;;;;10.40;76.90;101478.00;5071311;28;20518;-49
2021/05/27 05:40:10;;;;;;;20.13;6.95;;;;;;;10.39;77.17;101470.91;5070182;28;20055;-52
2021/05/27 05:42:38;;;;;;;17.40;6.32;;;;;;;10.45;77.32;101469.91;5071463;28;20074;-51
2021/05/27 05:45:07;;;;;;;21.00;7.70;;;;;;;10.46;77.32;101468.81;5071462;28;20403;-51
2021/05/27 05:47:35;;;;;;;21.45;8.40;;;;;;;10.46;77.29;101479.72;5073045;28;20543;-53
2021/05/27 05:50:06;;;;;;;18.35;6.88;;;;;;;10.45;77.51;101480.81;5075499;28;20048;-51
2021/05/27 05:52:34;;;;;;;21.02;8.15;;;;;;;10.47;77.29;101483.28;5074540;28;20047;-51
2021/05/27 05:55:02;;;;;;;25.67;8.50;;;;;;;10.50;77.27;101483.59;5075172;28;20086;-54
2021/05/27 05:57:29;;;;;;;23.98;8.52;;;;;;;10.46;77.14;101487.88;5074084;28;20066;-49
2021/05/27 05:59:57;;;;;;;18.23;7.30;;;;;;;10.43;77.77;101493.84;5075332;28;20098;-50
2021/05/27 06:02:25;;;;;;;18.17;7.45;;;;;;;10.45;77.65;101494.44;5074926;28;20033;-52
2021/05/27 06:04:53;;;;;;;19.27;7.80;;;;;;;10.44;77.44;101492.78;5074145;28;20055;-48
2021/05/27 06:07:39;;;;;;;18.58;6.78;;;;;;;10.43;77.33;101499.31;5070941;28;20048;-51
2021/05/27 06:10:09;;;;;;;16.77;6.15;;;;;;;10.40;77.59;101497.09;5075065;28;20040;-51
2021/05/27 06:12:38;;;;;;;16.83;6.50;;;;;;;10.39;77.57;101501.72;5074717;28;20094;-52
2021/05/27 06:15:07;;;;;;;21.15;7.43;;;;;;;10.36;77.80;101496.75;5074790;28;20048;-50
2021/05/27 06:17:35;;;;;;;17.88;6.97;;;;;;;10.34;77.93;101501.66;5074840;28;20384;-51
2021/05/27 06:20:04;;;;;;;15.85;6.43;;;;;;;10.34;78.28;101501.66;5061204;28;20058;-50
2021/05/27 06:22:36;;;;;;;17.63;6.93;;;;;;;10.35;78.39;101506.00;5073249;28;20052;-50
2021/05/27 06:25:09;;;;;;;15.68;6.15;;;;;;;10.37;78.15;101505.75;5074005;28;20471;-57
2021/05/27 06:27:37;;;;;;;16.95;6.18;;;;;;;10.36;78.14;101501.38;5075270;28;20055;-48
2021/05/27 06:30:06;;;;;;;16.90;6.47;;;;;;;10.37;77.86;101506.59;5075009;28;20391;-55
2021/05/27 06:32:36;;;;;;;17.38;5.88;;;;;;;10.36;77.86;101504.09;5075447;28;20056;-49
2021/05/27 06:35:10;;;;;;;14.38;5.70;;;;;;;10.36;77.96;101506.81;5074257;28;20067;-56
2021/05/27 06:37:39;;;;;;;16.38;5.82;;;;;;;10.36;77.94;101510.38;5074535;28;20041;-48
2021/05/27 06:40:11;;;;;;;18.98;6.55;;;;;;;10.33;78.14;101508.16;5074429;28;20043;-49
2021/05/27 06:42:39;;;;;;;20.40;6.82;;;;;;;10.32;78.68;101514.69;5074296;28;20041;-50
2021/05/27 06:45:08;;;;;;;15.27;6.15;;;;;;;10.31;78.59;101523.91;5074289;28;20051;-49
2021/05/27 06:47:35;;;;;;;17.10;6.50;;;;;;;10.33;78.92;101520.94;5074355;28;20091;-50
2021/05/27 06:50:05;;;;;;;18.20;6.70;;;;;;;10.31;79.06;101521.19;5073796;28;20044;-53
2021/05/27 06:52:33;;;;;;;17.60;6.30;;;;;;;10.32;78.96;101519.28;5074347;28;20086;-50
2021/05/27 06:55:00;;;;;;;22.95;8.02;;;;;;;10.33;78.84;101532.66;5074237;28;20110;-57
2021/05/27 06:57:28;;;;;;;17.63;7.00;;;;;;;10.32;78.83;101525.56;5074169;28;20056;-50
2021/05/27 06:59:56;;;;;;;21.95;9.00;;;;;;;10.35;78.86;101524.25;5073331;28;20047;-51
2021/05/27 07:02:24;;;;;;;16.63;6.78;;;;;;;10.36;78.41;101532.16;5074137;28;20098;-50
2021/05/27 07:04:51;;;;;;;22.13;7.47;;;;;;;10.34;78.75;101526.16;5073670;28;20572;-48
2021/05/27 07:07:19;;;;;;;19.13;6.95;;;;;;;10.32;78.68;101530.19;5073981;28;20029;-50
2021/05/27 07:09:46;;;;;;;15.73;6.40;;;;;;;10.30;78.82;101532.34;5073831;28;20122;-51
2021/05/27 07:12:15;;;;;;;22.15;7.72;;;;;;;10.27;78.86;101535.50;5073962;28;20113;-52
2021/05/27 07:14:44;;;;;;;16.38;6.60;;;;;;;10.29;78.91;101536.94;5073784;28;20036;-51
2021/05/27 07:17:12;;;;;;;15.23;6.65;;;;;;;10.28;79.29;101540.75;5073993;28;20110;-52
2021/05/27 07:19:39;;;;;;;17.10;6.45;;;;;;;10.31;79.07;101542.16;5073227;28;20059;-50
2021/05/27 07:22:07;;;;;;;18.73;6.60;;;;;;;10.28;79.07;101550.81;5073762;28;20041;-51
2021/05/27 07:24:35;;;;;;;18.00;5.93;;;;;;;10.26;79.25;101547.50;5073827;28;20048;-52
2021/05/27 07:27:03;;;;;;;16.88;6.88;;;;;;;10.23;78.76;101555.09;5073742;28;20045;-51
2021/05/27 07:29:31;;;;;;;17.98;5.25;;;;;;;10.21;78.62;101551.78;5073658;28;20041;-49
2021/05/27 07:31:59;;;;;;;15.98;5.45;;;;;;;10.24;78.70;101553.19;5055389;28;20041;-51
2021/05/27 07:34:26;;;;;;;16.75;5.85;;;;;;;10.27;78.42;101557.31;5065599;28;20094;-54
2021/05/27 07:36:54;;;;;;;16.48;5.35;;;;;;;10.24;78.43;101551.28;5073246;28;20040;-53
2021/05/27 07:39:21;;;;;;;17.67;5.57;;;;;;;10.25;79.06;101552.13;5073558;28;20040;-50
2021/05/27 07:41:49;;;;;;;17.88;5.45;;;;;;;10.30;78.61;101559.59;5073418;28;20086;-52
2021/05/27 07:44:17;;;;;;;36.08;11.00;;;;;;;10.34;79.46;101558.84;5073529;28;20079;-49
2021/05/27 07:46:45;;;;;;;16.30;5.75;;;;;;;10.38;78.14;101562.69;5073286;28;20106;-52
2021/05/27 07:49:13;;;;;;;13.50;5.10;;;;;;;10.36;78.22;101566.75;5073146;28;20094;-52
2021/05/27 07:51:40;;;;;;;16.90;5.07;;;;;;;10.34;78.46;101568.91;5072912;28;20101;-50
2021/05/27 07:54:08;;;;;;;17.48;5.40;;;;;;;10.31;78.46;101572.13;5073283;28;20037;-55
2021/05/27 07:56:35;;;;;;;14.65;5.50;;;;;;;10.29;78.66;101579.72;5071943;28;20782;-53
2021/05/27 07:59:03;;;;;;;15.85;5.07;;;;;;;10.27;78.73;101577.22;5073242;28;20094;-50
2021/05/27 08:01:31;;;;;;;13.90;5.38;;;;;;;10.28;78.54;101578.03;5073140;28;20087;-51
2021/05/27 08:03:58;;;;;;;18.25;6.03;;;;;;;10.35;78.98;101581.47;5072159;28;20059;-53
2021/05/27 08:06:26;;;;;;;15.20;5.22;;;;;;;10.37;78.78;101571.16;5072869;28;20526;-52
2021/05/27 08:08:54;;;;;;;20.15;5.95;;;;;;;10.36;78.87;101580.38;5072705;28;20044;-49
2021/05/27 08:11:22;;;;;;;16.58;6.60;;;;;;;10.37;79.20;101582.03;5072601;28;20041;-47
2021/05/27 08:13:50;;;;;;;14.00;5.47;;;;;;;10.35;79.12;101581.47;5073002;28;20043;-50
2021/05/27 08:16:18;;;;;;;20.77;6.22;;;;;;;10.30;79.13;101589.56;5072590;28;20044;-50
2021/05/27 08:18:45;;;;;;;18.30;6.30;;;;;;;10.24;79.25;101589.41;5072335;28;20036;-52
2021/05/27 08:21:13;;;;;;;19.70;6.65;;;;;;;10.22;79.39;101585.28;5072295;28;20032;-53
2021/05/27 08:23:41;;;;;;;19.65;5.93;;;;;;;10.18;79.72;101590.41;5072639;28;20068;-49
2021/05/27 08:26:08;;;;;;;16.88;5.60;;;;;;;10.14;79.64;101589.25;5072367;28;20064;-52
2021/05/27 08:28:36;;;;;;;16.25;5.50;;;;;;;10.13;79.61;101593.06;5072391;28;20045;-51
2021/05/27 08:31:04;;;;;;;19.65;5.55;;;;;;;10.14;79.64;101586.53;5072665;28;20118;-51
2021/05/27 08:33:32;;;;;;;15.95;5.30;;;;;;;10.16;79.68;101598.00;5071978;28;20040;-53
2021/05/27 08:35:59;;;;;;;17.55;5.60;;;;;;;10.13;79.78;101603.94;5072662;28;20483;-52
2021/05/27 08:38:28;;;;;;;18.05;6.43;;;;;;;10.06;79.38;101597.00;5072192;28;20098;-50
2021/05/27 08:40:56;;;;;;;14.38;5.70;;;;;;;10.03;79.64;101607.31;5072398;28;20722;-49
2021/05/27 08:43:24;;;;;;;19.30;6.35;;;;;;;10.05;80.14;101603.50;5072327;28;20487;-51
2021/05/27 08:45:53;;;;;;;18.88;6.40;;;;;;;10.05;79.57;101609.78;5070821;28;20447;-52
2021/05/27 08:48:21;;;;;;;22.25;6.80;;;;;;;10.10;79.82;101604.44;5072000;28;20044;-52
2021/05/27 08:50:49;;;;;;;16.88;5.97;;;;;;;10.17;79.55;101616.00;5072466;28;20037;-51
2021/05/27 08:53:18;;;;;;;17.40;5.38;;;;;;;10.17;79.17;101609.72;5072261;28;20094;-52
2021/05/27 08:55:47;;;;;;;16.52;6.00;;;;;;;10.16;79.29;101614.34;5058600;28;20548;-51
2021/05/27 08:58:16;;;;;;;19.02;6.25;;;;;;;10.12;78.56;101615.06;5072357;28;20044;-51
2021/05/27 09:00:44;;;;;;;19.48;5.55;;;;;;;10.10;78.97;101623.50;5071791;28;20040;-52
2021/05/27 09:03:14;;;;;;;18.08;5.93;;;;;;;10.10;78.69;101615.34;5072047;28;20105;-51
2021/05/27 09:05:42;;;;;;;13.45;4.97;;;;;;;10.15;78.93;101617.28;5072054;28;20055;-53
2021/05/27 09:08:28;;;;;;;21.45;5.60;;;;;;;10.15;78.58;101620.88;5073080;28;20041;-54
2021/05/27 09:11:01;;;;;;;15.98;5.60;;;;;;;10.18;78.64;101619.53;5074071;28;20053;-54
2021/05/27 09:13:29;;;;;;;15.10;5.25;;;;;;;10.18;78.50;101623.09;5073932;28;20044;-53
2021/05/27 09:16:11;;;;;;;18.35;6.05;;;;;;;10.22;78.53;101623.41;5073041;28;20037;-54
2021/05/27 09:18:43;;;;;;;15.25;5.60;;;;;;;10.23;78.34;101628.63;5073835;28;20040;-54
2021/05/27 09:21:13;;;;;;;21.42;6.10;;;;;;;10.24;79.33;101632.16;5073077;28;20053;-55
2021/05/27 09:23:50;;;;;;;17.45;4.60;;;;;;;10.23;78.72;101636.78;5075856;28;20098;-50
2021/05/27 09:26:19;;;;;;;17.92;5.60;;;;;;;10.26;78.60;101637.38;5076788;28;20545;-51
2021/05/27 09:28:48;;;;;;;15.02;5.15;;;;;;;10.32;78.87;101644.59;5077260;28;20090;-55
2021/05/27 09:31:22;;;;;;;15.70;5.30;;;;;;;10.35;79.03;101638.66;5076139;28;20044;-50
2021/05/27 09:34:01;;;;;;;19.00;5.95;;;;;;;10.62;78.87;101639.66;5075853;28;20029;-51
2021/05/27 09:36:29;;;;;;;16.00;5.32;;;;;;;10.97;78.73;101644.00;5075838;28;20067;-54
2021/05/27 09:39:02;;;;;;;14.38;4.90;;;;;;;11.29;76.31;101646.09;5075747;28;20470;-53
2021/05/27 09:41:33;;;;;;;15.27;5.30;;;;;;;11.53;75.29;101643.94;5076077;28;20040;-53
2021/05/27 09:44:01;;;;;;;12.70;4.43;;;;;;;11.69;74.56;101645.78;5075410;28;20060;-48
2021/05/27 09:46:48;;;;;;;16.52;5.50;;;;;;;11.49;74.07;101659.16;5075455;28;20052;-53
2021/05/27 09:49:16;;;;;;;18.73;5.57;;;;;;;11.05;74.46;101659.94;5075790;28;20105;-52
2021/05/27 09:51:44;;;;;;;17.17;5.50;;;;;;;10.76;76.54;101661.94;5075430;28;20068;-49
2021/05/27 09:54:11;;;;;;;15.35;5.60;;;;;;;10.68;77.01;101664.25;5074758;28;20068;-54
2021/05/27 09:56:41;;;;;;;16.23;5.53;;;;;;;10.60;77.02;101663.59;5075828;28;20044;-51
2021/05/27 09:59:12;;;;;;;16.15;5.25;;;;;;;10.53;77.37;101657.47;5074838;28;20398;-49
2021/05/27 10:01:49;;;;;;;14.70;5.20;;;;;;;10.50;77.05;101665.34;5075861;28;20036;-53
2021/05/27 10:04:17;;;;;;;;;;;;;;;10.46;77.28;101673.16;5074515;28;20053;-50
2021/05/27 10:06:45;;;;;;;16.45;5.50;;;;;;;10.45;76.73;101676.97;5075853;28;19959;-50
2021/05/27 10:09:12;;;;;;;18.10;5.30;;;;;;;10.43;77.44;101674.47;5075643;28;20190;-52
2021/05/27 10:11:41;;;;;;;15.23;5.88;;;;;;;10.42;77.28;101672.03;5071712;28;20048;-54
2021/05/27 10:14:08;;;;;;;17.45;5.28;;;;;;;10.42;77.45;101672.84;5074360;28;20078;-51
2021/05/27 10:16:37;;;;;;;16.35;5.75;;;;;;;10.44;77.73;101681.59;5074944;28;20090;-52
2021/05/27 10:19:06;;;;;;;15.85;5.72;;;;;;;10.49;77.24;101678.13;5075220;28;20082;-51
2021/05/27 10:21:37;;;;;;;12.80;4.72;;;;;;;10.52;76.97;101680.38;5074269;28;20110;-50
2021/05/27 10:24:05;;;;;;;16.52;5.15;;;;;;;10.53;76.77;101683.91;5074829;28;20079;-52
2021/05/27 10:26:33;;;;;;;14.65;4.70;;;;;;;10.52;76.95;101687.72;5074560;28;20411;-53
2021/05/27 10:29:23;;;;;;;13.85;4.90;;;;;;;10.57;76.79;101679.63;5073870;28;20402;-54
2021/05/27 10:31:51;;;;;;;11.63;4.70;;;;;;;10.59;77.15;101689.19;5074321;28;20445;-52
2021/05/27 10:34:41;;;;;;;16.17;5.32;;;;;;;10.61;76.78;101688.97;5056021;28;20102;-51
2021/05/27 10:37:09;;;;;;;14.75;5.10;;;;;;;10.59;76.38;101683.75;5061675;28;20090;-53
2021/05/27 10:39:39;;;;;;;15.90;5.22;;;;;;;10.57;76.72;101691.34;5074741;28;20045;-56
2021/05/27 10:42:07;;;;;;;19.77;5.82;;;;;;;10.58;76.56;101694.88;5073181;28;20098;-51
2021/05/27 10:44:34;;;;;;;13.70;4.90;;;;;;;10.57;77.12;101695.97;5074288;28;20090;-53
2021/05/27 10:47:02;;;;;;;13.32;5.32;;;;;;;10.54;76.78;101691.84;5073904;28;20072;-54
2021/05/27 10:49:42;;;;;;;20.90;5.50;;;;;;;10.53;76.97;101708.44;5074597;28;20066;-53
2021/05/27 10:52:29;;;;;;;16.80;5.22;;;;;;;10.50;76.49;101701.56;5073772;28;20420;-52
2021/05/27 10:54:57;;;;;;;18.02;5.40;;;;;;;10.55;76.85;101704.38;5074286;28;20056;-53
2021/05/27 10:57:39;;;;;;;18.58;5.90;;;;;;;10.60;76.68;101699.03;5073633;28;20041;-53
2021/05/27 11:00:31;;;;;;;17.80;6.00;;;;;;;10.64;76.15;101697.47;5073837;28;20059;-56
2021/05/27 11:03:44;;;;;;;17.42;5.82;;;;;;;10.66;75.87;101705.41;5073555;28;20048;-53
2021/05/27 11:06:31;;;;;;;18.23;5.80;;;;;;;10.68;76.61;101707.88;5031749;28;20042;-53
2021/05/27 11:09:11;;;;;;;22.33;6.60;;;;;;;10.72;76.27;101709.84;5031314;28;20120;-53
2021/05/27 11:11:45;;;;;;;16.42;5.55;;;;;;;10.72;76.09;101715.31;5030327;28;20523;-52
2021/05/27 11:14:34;;;;;;;16.60;5.18;;;;;;;10.76;75.70;101705.56;5031474;28;20053;-51
2021/05/27 11:17:03;;;;;;;19.63;6.22;;;;;;;10.80;75.82;101711.34;5031563;28;20061;-53
2021/05/27 11:19:56;;;;;;;23.73;6.15;;;;;;;10.80;75.51;101711.34;5031376;28;20107;-50
2021/05/27 11:27:51;;;;;;;19.83;6.13;;;;;;;10.76;75.29;101719.19;5031145;28;20086;-50
2021/05/27 11:30:27;;;;;;;19.08;6.10;;;;;;;10.80;75.75;101727.69;5031308;28;20054;-51
2021/05/27 11:32:58;;;;;;;15.02;5.45;;;;;;;10.81;75.41;101723.91;5014860;28;20045;-50
2021/05/27 11:35:28;;;;;;;21.10;5.88;;;;;;;10.83;75.53;101721.75;5031064;28;20492;-47
2021/05/27 11:37:57;;;;;;;17.55;5.57;;;;;;;10.86;76.18;101732.16;5065451;28;20102;-47
2021/05/27 11:40:31;;;;;;;16.65;5.38;;;;;;;10.88;75.82;101730.03;5080194;28;20078;-49
2021/05/27 11:42:59;;;;;;;17.80;6.15;;;;;;;10.89;74.95;101731.66;5062884;28;20068;-50
2021/05/27 11:45:28;;;;;;;16.27;5.40;;;;;;;10.89;74.81;101737.13;5071481;28;20049;-50
2021/05/27 11:50:58;;;;;;;15.43;5.85;;;;;;;10.87;73.90;101739.25;5065513;28;20032;-54
2021/05/27 11:53:27;;;;;;;21.27;5.85;;;;;;;10.87;74.81;101739.25;5072990;28;20395;-50
2021/05/27 11:55:56;;;;;;;18.60;5.93;;;;;;;10.88;75.25;101744.47;5072555;28;20458;-49